Andrus Island, California
Current Conditions -  °F | °C
As of 3:58 AM on Tuesday 27 Jan 2015 (Local Time) from KSUU Reporting Station
Haze Haze  
Wind Chill: 47°   Ceiling: Unl
Heat Index: 47°   Visibility: 6mi
Dew Point: 46°   Wind: 2mph
Humidity: 96%   Direction: 60°ENE
Pressure: 30.06"   Gusts: NA
Location:  38.1457°N, 121.624°W
Report Text: KSUU 271158Z AUTO 06002KT 6SM BR CLR 08/08 A3006 RMK AO2 SLP186 T00830077 10105 20081 52017 $
Loading
Personal Weather Stations






























Interactive Weather Map New forecast layout! Learn more

10-Day Weather Forecast

Advertisements
Track Severe Weather on mobile